Nearby METAR Reports

CWGD - Goderich (autob), Ontario, Canada
Distance from station: SW 47km
Updated: 10/21/2019 9:00pm

 Wind from SE
Wind: SE 31 km/h, Gust: 46 km/h
Temperature: 14°C
Dew Point: 10°C
Humidity: 77%
2019/10/22 01:00 CWGD 220100Z AUTO 13017G25KT 14/10 RMK AO1 PK WND 12029/0003 SLP072 T01400096 56019
CWLS - Mount Forest(Mar, Ontario, Canada
Distance from station: ESE 53km
Updated: 10/21/2019 9:00pm

 Wind from SE
Wind: SE 17 km/h, Gust: 33 km/h
Temperature: 12°C
Dew Point: 8°C
Humidity: 77%
2019/10/22 01:00 CWLS 220100Z AUTO 13009G18KT 12/08 RMK AO1 PK WND 12018/0052 SLP102 T01210080 56013
 
CYVV - Wiarton Air, Ontario, Canada
Distance from station: NNE 75km
Updated: 10/21/2019 9:00pm
Light rain, Overcast
Light rain, Overcast
 Wind from E
Wind: E 13 km/h
Temperature: 11°C
Dew Point: 9°C
Humidity: 88%
Barometer: 1007.8 hPa
Summary: Light rain
Clouds: Overcast
Visibility: 16 km
Cloud details: Few Clouds 335 m
Overcast 1280 m
2019/10/22 01:00 CYVV 220100Z 10007KT 10SM -RA FEW011 OVC042 11/09 A2976 RMK SF2NS6 SLP084
CZEL - Elora Rcs, Ontario, Canada
Distance from station: ESE 93km
Updated: 10/21/2019 9:00pm

 Wind from E
Wind: E 24 km/h, Gust: 39 km/h
Temperature: 12°C
Dew Point: 9°C
Humidity: 82%
2019/10/22 01:00 CZEL 220100Z AUTO 10013G21KT 12/09 RMK AO1 PK WND 11023/0032 SLP111 T01200092 56018
 
CWCO - Collingwood (aut, Ontario, Canada
Distance from station: ENE 104km
Updated: 10/21/2019 9:00pm

 Wind from SSE
Wind: SSE 11 km/h
Temperature: 14°C
Dew Point: 7°C
Humidity: 63%
2019/10/22 01:00 CWCO 220100Z AUTO 15006KT 14/07 RMK AO1 PK WND 14017/0005 SLP094 T01360068 58021
CYKF - Waterloo Well, Ontario, Canada
Distance from station: SE 107km
Updated: 10/21/2019 9:00pm
Overcast
Overcast
 Wind from E
Wind: E 20 km/h, Gust: 30 km/h
Temperature: 12°C
Dew Point: 10°C
Humidity: 88%
Barometer: 1009.5 hPa
Clouds: Overcast
Visibility: 14 km
Cloud details: Mostly cloudy 1829 m
Overcast 2164 m
2019/10/22 01:00 CYKF 220100Z AUTO 09011G16KT 9SM BKN060 OVC071 12/10 A2981 RMK SLP101
 
KP58 - Port Hope, Michigan, USA
Distance from station: W 114km
Updated: 10/21/2019 8:51pm

 Wind from SE
Wind: SE 28 km/h, Gust: 41 km/h
Temperature: 13°C
Dew Point: 10°C
Humidity: 82%
Barometer: 1003.7 hPa
2019/10/22 00:51 KP58 220051Z AUTO 14015G22KT 13/10 A2964 RMK AO1 PK WND 14027/0011 SLP037 P0002 T01330100
CYBN - Borden, Ontario, Canada
Distance from station: E 118km
Updated: 10/21/2019 9:00pm
Overcast
Overcast
 Wind from SE
Wind: SE 13 km/h
Temperature: 14°C
Dew Point: 8°C
Humidity: 67%
Barometer: 1010.2 hPa
Clouds: Overcast
Visibility: 14 km
Cloud details: Overcast 2012 m
2019/10/22 01:00 CYBN 220100Z AUTO 13007KT 9SM OVC066 14/08 A2983 RMK SLP107
 
CYXU - London Airport, Ontario, Canada
Distance from station: S 123km
Updated: 10/21/2019 9:00pm
Overcast
Overcast
 Wind from ESE
Wind: ESE 22 km/h
Temperature: 14°C
Dew Point: 10°C
Humidity: 77%
Barometer: 1007.8 hPa
Clouds: Overcast
Visibility: 24 km
Cloud details: Overcast 1676 m
2019/10/22 01:00 CYXU 220100Z 11012KT 15SM OVC055 14/10 A2976 RMK SC8 SLP082 DENSITY ALT 1200FT
CXET - Egbert Cs, Ontario, Canada
Distance from station: E 128km
Updated: 10/21/2019 9:00pm

 Wind from ESE
Wind: ESE 22 km/h, Gust: 39 km/h
Temperature: 15°C
Dew Point: 7°C
Humidity: 59%
2019/10/22 01:00 CXET 220100Z AUTO 12012G21KT 15/07 RMK AO1 PK WND 12022/0040 SLP112 T01450067 56027
 
CWMZ - Western Isl (map, Ontario, Canada
Distance from station: NE 129km
Updated: 10/21/2019 8:00pm

 Wind from SE
Wind: SE 44 km/h
Temperature: 14°C
Dew Point: 7°C
Humidity: 63%
2019/10/22 00:00 CWMZ 220000Z AUTO 13024KT 14/07 RMK AO1 PK WND 12033/2316 SLP092 T01350074 56028
KBAX - Bad Axe, Michigan, USA
Distance from station: WSW 133km
Updated: 10/21/2019 8:56pm
Drizzle, Overcast
Drizzle, Overcast
 Wind from SSE
Wind: SSE 24 km/h, Gust: 33 km/h
Temperature: 14°C
Dew Point: 11°C
Humidity: 82%
Barometer: 1003.7 hPa
Summary: Drizzle
Clouds: Overcast
Visibility: 16 km
Cloud details: Partly cloudy 1158 m
Partly cloudy 1524 m
Overcast 2743 m
2019/10/22 00:56 KBAX 220056Z AUTO 15013G18KT 10SM DZ SCT038 SCT050 OVC090 14/11 A2964 RMK AO2 T01370106
 
CWWX - Cove Island (map, Ontario, Canada
Distance from station: NNW 137km
Updated: 10/21/2019 8:00pm

 Wind from SSE
Wind: SSE 28 km/h, Gust: 48 km/h
Temperature: 12°C
Dew Point: 9°C
Humidity: 82%
2019/10/22 00:00 CWWX 220000Z AUTO 16015G26KT 12/09 RMK AO1 PK WND 15027/2319 SLP083 T01190087 56016
CYZR - Sarnia Airport, Ontario, Canada
Distance from station: SSW 144km
Updated: 10/21/2019 9:00pm
Light rain, Overcast
Light rain, Overcast
 Wind from SE
Wind: SE 28 km/h, Gust: 37 km/h
Temperature: 15°C
Dew Point: 11°C
Humidity: 77%
Barometer: 1005.1 hPa
Summary: Light rain
Clouds: Overcast
Visibility: 14 km
Cloud details: Few Clouds 1463 m
Partly cloudy 1829 m
Mostly cloudy 2286 m
Overcast 3658 m
2019/10/22 01:00 CYZR 220100Z AUTO 14015G20KT 9SM -RA FEW048 SCT060 BKN075 OVC120 15/11 A2968 RMK RVR MISG SLP052 DENSITY ALT 900FT
 
CXHM - Hamilton Rbg Cs, Ontario, Canada
Distance from station: SE 150km
Updated: 10/21/2019 9:00pm

 Wind from ENE
Wind: ENE 11 km/h
2019/10/22 01:00 CXHM 220100Z AUTO 07006KT RMK AO1 56020
CYYZ - Toronto/Pearson, Ontario, Canada
Distance from station: ESE 150km
Updated: 10/21/2019 9:00pm
Mostly cloudy
Mostly cloudy
 Wind from E
Wind: E 33 km/h, Gust: 57 km/h
Temperature: 14°C
Dew Point: 9°C
Humidity: 72%
Barometer: 1010.2 hPa
Clouds: Mostly cloudy
Visibility: 24 km
Cloud details: Mostly cloudy 3048 m
Mostly cloudy 4572 m
2019/10/22 01:00 CYYZ 220100Z 10018G31KT 15SM BKN100 BKN150 14/09 A2983 RMK AC5AC2 SLP106 DENSITY ALT 800FT
 
CXBI - Barrie-Oro, Ontario, Canada
Distance from station: ENE 151km
Updated: 10/21/2019 9:00pm

 Wind from ESE
Wind: ESE 22 km/h, Gust: 39 km/h
Temperature: 13°C
Dew Point: 8°C
Humidity: 72%
2019/10/22 01:00 CXBI 220100Z AUTO 11012G21KT 13/08 RMK AO1 PK WND 10023/0032 SLP117 T01250076 58022
CXDI - Delhi Cs (aut), Ontario, Canada
Distance from station: SSE 154km
Updated: 10/21/2019 9:00pm

 Wind from E
Wind: E 4 km/h
Temperature: 15°C
Dew Point: 11°C
Humidity: 77%
2019/10/22 01:00 CXDI 220100Z AUTO 09002KT 15/11 RMK AO1 SLP093 T01450107 58018
 
CWWB - Burlington Piers, Ontario, Canada
Distance from station: SE 157km
Updated: 10/21/2019 9:00pm

 Wind from NNE
Wind: NNE 19 km/h
Temperature: 14°C
Dew Point: 12°C
Humidity: 88%
2019/10/22 01:00 CWWB 220100Z AUTO 03010KT 14/12 RMK AO1 SLP101 T01410123 56019
CYHM - Hamilton Airport, Ontario, Canada
Distance from station: SE 157km
Updated: 10/21/2019 9:00pm
Overcast
Overcast
 Wind from NE
Wind: NE 15 km/h
Temperature: 13°C
Dew Point: 11°C
Humidity: 88%
Barometer: 1009.8 hPa
Clouds: Overcast
Visibility: 24 km
Cloud details: Partly cloudy 1890 m
Mostly cloudy 2134 m
Overcast 7620 m
2019/10/22 01:00 CYHM 220100Z 04008KT 15SM SCT062 BKN070 OVC250 13/11 A2982 RMK SC4AC3CI1 SLP102 DENSITY ALT 900FT